sensor_id;sensor_type;location;lat;lon;timestamp;temperature;humidity
13470;DHT22;6807;48.682;9.032;2023-08-30T00:00:41;11.60;1.00
13470;DHT22;6807;48.682;9.032;2023-08-30T00:03:08;11.60;1.00
13470;DHT22;6807;48.682;9.032;2023-08-30T00:05:38;11.70;1.00
13470;DHT22;6807;48.682;9.032;2023-08-30T00:08:05;11.80;1.00
13470;DHT22;6807;48.682;9.032;2023-08-30T00:10:32;11.90;1.00
13470;DHT22;6807;48.682;9.032;2023-08-30T00:13:00;11.80;1.00
13470;DHT22;6807;48.682;9.032;2023-08-30T00:15:27;11.90;1.00
13470;DHT22;6807;48.682;9.032;2023-08-30T00:17:54;11.90;1.00
13470;DHT22;6807;48.682;9.032;2023-08-30T00:20:22;11.90;1.00
13470;DHT22;6807;48.682;9.032;2023-08-30T00:22:50;11.80;1.00
13470;DHT22;6807;48.682;9.032;2023-08-30T00:25:17;11.90;1.00
13470;DHT22;6807;48.682;9.032;2023-08-30T00:27:44;11.90;1.00
13470;DHT22;6807;48.682;9.032;2023-08-30T00:30:12;12.00;1.00
13470;DHT22;6807;48.682;9.032;2023-08-30T00:32:39;11.90;1.00
13470;DHT22;6807;48.682;9.032;2023-08-30T00:35:07;12.00;1.00
13470;DHT22;6807;48.682;9.032;2023-08-30T00:37:34;11.90;1.00
13470;DHT22;6807;48.682;9.032;2023-08-30T00:40:01;11.80;1.00
13470;DHT22;6807;48.682;9.032;2023-08-30T00:42:28;11.80;1.00
13470;DHT22;6807;48.682;9.032;2023-08-30T00:44:55;11.90;1.00
13470;DHT22;6807;48.682;9.032;2023-08-30T00:47:23;11.90;1.00
13470;DHT22;6807;48.682;9.032;2023-08-30T00:49:51;12.00;1.00
13470;DHT22;6807;48.682;9.032;2023-08-30T00:52:18;11.90;1.00
13470;DHT22;6807;48.682;9.032;2023-08-30T00:54:45;12.00;1.00
13470;DHT22;6807;48.682;9.032;2023-08-30T00:57:12;12.00;1.00
13470;DHT22;6807;48.682;9.032;2023-08-30T00:59:39;12.00;1.00
13470;DHT22;6807;48.682;9.032;2023-08-30T01:02:06;12.00;1.00
13470;DHT22;6807;48.682;9.032;2023-08-30T01:04:34;12.00;1.00
13470;DHT22;6807;48.682;9.032;2023-08-30T01:07:01;11.90;1.00
13470;DHT22;6807;48.682;9.032;2023-08-30T01:09:28;11.90;1.00
13470;DHT22;6807;48.682;9.032;2023-08-30T01:12:00;12.00;1.00
13470;DHT22;6807;48.682;9.032;2023-08-30T01:14:38;12.00;1.00
13470;DHT22;6807;48.682;9.032;2023-08-30T01:17:07;11.90;1.00
13470;DHT22;6807;48.682;9.032;2023-08-30T01:19:48;11.90;1.00
13470;DHT22;6807;48.682;9.032;2023-08-30T01:22:21;11.90;1.00
13470;DHT22;6807;48.682;9.032;2023-08-30T01:24:59;11.90;1.00
13470;DHT22;6807;48.682;9.032;2023-08-30T01:27:31;12.00;1.00
13470;DHT22;6807;48.682;9.032;2023-08-30T01:30:02;11.90;1.00
13470;DHT22;6807;48.682;9.032;2023-08-30T01:32:31;11.80;1.00
13470;DHT22;6807;48.682;9.032;2023-08-30T01:35:01;11.70;1.00
13470;DHT22;6807;48.682;9.032;2023-08-30T01:37:28;11.60;1.00
13470;DHT22;6807;48.682;9.032;2023-08-30T01:39:57;11.50;1.00
13470;DHT22;6807;48.682;9.032;2023-08-30T01:42:25;11.50;1.00
13470;DHT22;6807;48.682;9.032;2023-08-30T01:44:55;11.50;1.00
13470;DHT22;6807;48.682;9.032;2023-08-30T01:47:25;11.50;1.00
13470;DHT22;6807;48.682;9.032;2023-08-30T01:49:53;11.50;1.00
13470;DHT22;6807;48.682;9.032;2023-08-30T01:52:20;11.40;1.00
13470;DHT22;6807;48.682;9.032;2023-08-30T01:54:51;11.40;1.00
13470;DHT22;6807;48.682;9.032;2023-08-30T01:57:18;11.40;1.00
13470;DHT22;6807;48.682;9.032;2023-08-30T01:59:45;11.40;1.00
13470;DHT22;6807;48.682;9.032;2023-08-30T02:02:13;11.40;1.00
13470;DHT22;6807;48.682;9.032;2023-08-30T02:04:40;11.40;1.00
13470;DHT22;6807;48.682;9.032;2023-08-30T02:07:13;11.30;1.00
13470;DHT22;6807;48.682;9.032;2023-08-30T02:09:48;11.30;1.00
13470;DHT22;6807;48.682;9.032;2023-08-30T02:12:17;11.30;1.00
13470;DHT22;6807;48.682;9.032;2023-08-30T02:14:47;11.30;1.00
13470;DHT22;6807;48.682;9.032;2023-08-30T02:17:16;11.30;1.00
13470;DHT22;6807;48.682;9.032;2023-08-30T02:19:44;11.30;1.00
13470;DHT22;6807;48.682;9.032;2023-08-30T02:22:12;11.30;1.00
13470;DHT22;6807;48.682;9.032;2023-08-30T02:24:39;11.30;1.00
13470;DHT22;6807;48.682;9.032;2023-08-30T02:27:05;11.30;1.00
13470;DHT22;6807;48.682;9.032;2023-08-30T02:29:32;11.40;1.00
13470;DHT22;6807;48.682;9.032;2023-08-30T02:31:59;11.50;1.00
13470;DHT22;6807;48.682;9.032;2023-08-30T02:34:27;11.50;1.00
13470;DHT22;6807;48.682;9.032;2023-08-30T02:36:55;11.50;1.00
13470;DHT22;6807;48.682;9.032;2023-08-30T02:39:21;11.40;1.00
13470;DHT22;6807;48.682;9.032;2023-08-30T02:41:48;11.30;1.00
13470;DHT22;6807;48.682;9.032;2023-08-30T02:44:15;11.20;1.00
13470;DHT22;6807;48.682;9.032;2023-08-30T02:46:42;11.10;1.00
13470;DHT22;6807;48.682;9.032;2023-08-30T02:49:09;11.10;1.00
13470;DHT22;6807;48.682;9.032;2023-08-30T02:51:38;11.00;1.00
13470;DHT22;6807;48.682;9.032;2023-08-30T02:54:05;11.00;1.00
13470;DHT22;6807;48.682;9.032;2023-08-30T02:56:32;11.00;1.00
13470;DHT22;6807;48.682;9.032;2023-08-30T02:58:59;11.00;1.00
13470;DHT22;6807;48.682;9.032;2023-08-30T03:01:26;11.00;1.00
13470;DHT22;6807;48.682;9.032;2023-08-30T03:03:53;11.00;1.00
13470;DHT22;6807;48.682;9.032;2023-08-30T03:06:20;11.00;1.00
13470;DHT22;6807;48.682;9.032;2023-08-30T03:08:48;11.00;1.00
13470;DHT22;6807;48.682;9.032;2023-08-30T03:11:15;11.10;1.00
13470;DHT22;6807;48.682;9.032;2023-08-30T03:13:42;11.00;1.00
13470;DHT22;6807;48.682;9.032;2023-08-30T03:16:13;11.10;1.00
13470;DHT22;6807;48.682;9.032;2023-08-30T03:18:40;11.10;1.00
13470;DHT22;6807;48.682;9.032;2023-08-30T03:21:07;11.10;1.00
13470;DHT22;6807;48.682;9.032;2023-08-30T03:23:35;11.10;1.00
13470;DHT22;6807;48.682;9.032;2023-08-30T03:26:09;11.10;1.00
13470;DHT22;6807;48.682;9.032;2023-08-30T03:28:36;11.10;1.00
13470;DHT22;6807;48.682;9.032;2023-08-30T03:31:11;11.10;1.00
13470;DHT22;6807;48.682;9.032;2023-08-30T03:33:38;11.10;1.00
13470;DHT22;6807;48.682;9.032;2023-08-30T03:36:07;11.10;1.00
13470;DHT22;6807;48.682;9.032;2023-08-30T03:38:35;11.10;1.00
13470;DHT22;6807;48.682;9.032;2023-08-30T03:41:02;11.10;1.00
13470;DHT22;6807;48.682;9.032;2023-08-30T03:43:31;11.00;1.00
13470;DHT22;6807;48.682;9.032;2023-08-30T03:45:59;10.90;1.00
13470;DHT22;6807;48.682;9.032;2023-08-30T03:48:27;10.90;1.00
13470;DHT22;6807;48.682;9.032;2023-08-30T03:50:55;11.00;1.00
13470;DHT22;6807;48.682;9.032;2023-08-30T03:53:22;11.10;1.00
13470;DHT22;6807;48.682;9.032;2023-08-30T03:55:49;11.10;1.00
13470;DHT22;6807;48.682;9.032;2023-08-30T03:58:16;11.10;1.00
13470;DHT22;6807;48.682;9.032;2023-08-30T04:00:44;11.00;1.00
13470;DHT22;6807;48.682;9.032;2023-08-30T04:03:13;11.00;1.00
13470;DHT22;6807;48.682;9.032;2023-08-30T04:05:41;10.90;1.00
13470;DHT22;6807;48.682;9.032;2023-08-30T04:08:09;10.80;1.00
13470;DHT22;6807;48.682;9.032;2023-08-30T04:10:36;10.80;1.00
13470;DHT22;6807;48.682;9.032;2023-08-30T04:13:04;10.80;1.00
13470;DHT22;6807;48.682;9.032;2023-08-30T04:15:32;10.90;1.00
13470;DHT22;6807;48.682;9.032;2023-08-30T04:18:01;10.90;1.00
13470;DHT22;6807;48.682;9.032;2023-08-30T04:20:28;11.00;1.00
13470;DHT22;6807;48.682;9.032;2023-08-30T04:22:55;10.90;1.00
13470;DHT22;6807;48.682;9.032;2023-08-30T04:25:22;10.90;1.00
13470;DHT22;6807;48.682;9.032;2023-08-30T04:27:49;10.90;1.00
13470;DHT22;6807;48.682;9.032;2023-08-30T04:30:17;10.90;1.00
13470;DHT22;6807;48.682;9.032;2023-08-30T04:32:43;10.80;1.00
13470;DHT22;6807;48.682;9.032;2023-08-30T04:35:12;10.80;1.00
13470;DHT22;6807;48.682;9.032;2023-08-30T04:37:39;10.90;1.00
13470;DHT22;6807;48.682;9.032;2023-08-30T04:40:07;10.80;1.00
13470;DHT22;6807;48.682;9.032;2023-08-30T04:42:34;10.80;1.00
13470;DHT22;6807;48.682;9.032;2023-08-30T04:45:01;10.90;1.00
13470;DHT22;6807;48.682;9.032;2023-08-30T04:47:29;11.00;1.00
13470;DHT22;6807;48.682;9.032;2023-08-30T04:49:56;11.10;1.00
13470;DHT22;6807;48.682;9.032;2023-08-30T04:52:24;11.10;1.00
13470;DHT22;6807;48.682;9.032;2023-08-30T04:54:51;11.20;1.00
13470;DHT22;6807;48.682;9.032;2023-08-30T04:57:18;11.20;1.00
13470;DHT22;6807;48.682;9.032;2023-08-30T04:59:45;11.30;1.00
13470;DHT22;6807;48.682;9.032;2023-08-30T05:02:12;11.40;1.00
13470;DHT22;6807;48.682;9.032;2023-08-30T05:04:39;11.40;1.00
13470;DHT22;6807;48.682;9.032;2023-08-30T05:07:06;11.40;1.00
13470;DHT22;6807;48.682;9.032;2023-08-30T05:09:35;11.40;1.00
13470;DHT22;6807;48.682;9.032;2023-08-30T05:12:02;11.40;1.00
13470;DHT22;6807;48.682;9.032;2023-08-30T05:14:29;11.50;1.00
13470;DHT22;6807;48.682;9.032;2023-08-30T05:16:56;11.60;1.00
13470;DHT22;6807;48.682;9.032;2023-08-30T05:19:23;11.70;1.00
13470;DHT22;6807;48.682;9.032;2023-08-30T05:21:50;11.70;1.00
13470;DHT22;6807;48.682;9.032;2023-08-30T05:24:20;11.70;1.00
13470;DHT22;6807;48.682;9.032;2023-08-30T05:26:48;11.80;1.00
13470;DHT22;6807;48.682;9.032;2023-08-30T05:29:15;11.80;1.00
13470;DHT22;6807;48.682;9.032;2023-08-30T05:31:43;11.80;1.00
13470;DHT22;6807;48.682;9.032;2023-08-30T05:34:10;11.90;1.00
13470;DHT22;6807;48.682;9.032;2023-08-30T05:36:37;11.90;1.00
13470;DHT22;6807;48.682;9.032;2023-08-30T05:39:05;12.00;1.00
13470;DHT22;6807;48.682;9.032;2023-08-30T06:02:09;12.30;1.00
13470;DHT22;6807;48.682;9.032;2023-08-30T06:04:36;12.30;4.00
13470;DHT22;6807;48.682;9.032;2023-08-30T06:07:03;12.40;10.10
13470;DHT22;6807;48.682;9.032;2023-08-30T06:09:30;12.30;6.20
13470;DHT22;6807;48.682;9.032;2023-08-30T06:11:58;12.30;7.60
13470;DHT22;6807;48.682;9.032;2023-08-30T06:14:25;12.20;3.20
13470;DHT22;6807;48.682;9.032;2023-08-30T06:16:55;12.40;11.10
13470;DHT22;6807;48.682;9.032;2023-08-30T06:19:24;12.50;4.40
13470;DHT22;6807;48.682;9.032;2023-08-30T06:21:53;12.60;2.60
13470;DHT22;6807;48.682;9.032;2023-08-30T06:24:33;12.70;11.90
13470;DHT22;6807;48.682;9.032;2023-08-30T06:29:28;12.60;1.00
13470;DHT22;6807;48.682;9.032;2023-08-30T06:31:55;12.60;1.00
13470;DHT22;6807;48.682;9.032;2023-08-30T06:34:23;12.60;1.00
13470;DHT22;6807;48.682;9.032;2023-08-30T06:41:44;12.60;1.00
13470;DHT22;6807;48.682;9.032;2023-08-30T06:44:11;12.60;1.00
13470;DHT22;6807;48.682;9.032;2023-08-30T06:46:38;12.70;1.00
13470;DHT22;6807;48.682;9.032;2023-08-30T06:49:06;12.70;1.00
13470;DHT22;6807;48.682;9.032;2023-08-30T06:51:36;12.70;1.00
13470;DHT22;6807;48.682;9.032;2023-08-30T06:54:03;13.90;1.00
13470;DHT22;6807;48.682;9.032;2023-08-30T06:56:30;12.70;1.00
13470;DHT22;6807;48.682;9.032;2023-08-30T06:58:57;12.80;1.00
13470;DHT22;6807;48.682;9.032;2023-08-30T07:01:24;12.80;1.00
13470;DHT22;6807;48.682;9.032;2023-08-30T07:03:51;12.70;1.00
13470;DHT22;6807;48.682;9.032;2023-08-30T07:06:18;12.80;1.00
13470;DHT22;6807;48.682;9.032;2023-08-30T07:08:46;12.90;1.00
13470;DHT22;6807;48.682;9.032;2023-08-30T07:11:13;13.00;1.00
13470;DHT22;6807;48.682;9.032;2023-08-30T07:13:40;13.10;1.00
13470;DHT22;6807;48.682;9.032;2023-08-30T07:16:07;13.10;1.00
13470;DHT22;6807;48.682;9.032;2023-08-30T07:18:34;13.20;1.00
13470;DHT22;6807;48.682;9.032;2023-08-30T07:21:01;13.40;1.00
13470;DHT22;6807;48.682;9.032;2023-08-30T07:23:29;13.40;99.90
13470;DHT22;6807;48.682;9.032;2023-08-30T07:25:57;13.40;99.90
13470;DHT22;6807;48.682;9.032;2023-08-30T07:28:24;13.50;99.90
13470;DHT22;6807;48.682;9.032;2023-08-30T07:30:51;13.40;99.90
13470;DHT22;6807;48.682;9.032;2023-08-30T07:33:18;13.40;99.90
13470;DHT22;6807;48.682;9.032;2023-08-30T07:35:44;13.40;99.90
13470;DHT22;6807;48.682;9.032;2023-08-30T07:38:11;13.40;99.90
13470;DHT22;6807;48.682;9.032;2023-08-30T07:40:38;13.50;99.90
13470;DHT22;6807;48.682;9.032;2023-08-30T07:43:07;13.50;99.90
13470;DHT22;6807;48.682;9.032;2023-08-30T07:45:34;13.60;99.90
13470;DHT22;6807;48.682;9.032;2023-08-30T07:48:01;13.60;99.90
13470;DHT22;6807;48.682;9.032;2023-08-30T07:50:28;13.50;99.90
13470;DHT22;6807;48.682;9.032;2023-08-30T07:52:55;13.60;99.90
13470;DHT22;6807;48.682;9.032;2023-08-30T07:55:22;13.70;99.90
13470;DHT22;6807;48.682;9.032;2023-08-30T07:57:47;13.70;99.90
13470;DHT22;6807;48.682;9.032;2023-08-30T08:00:16;13.70;99.90
13470;DHT22;6807;48.682;9.032;2023-08-30T08:02:44;13.70;99.90
13470;DHT22;6807;48.682;9.032;2023-08-30T08:05:11;13.80;99.90
13470;DHT22;6807;48.682;9.032;2023-08-30T08:08:00;14.30;99.90
13470;DHT22;6807;48.682;9.032;2023-08-30T08:10:32;16.70;99.90
13470;DHT22;6807;48.682;9.032;2023-08-30T08:12:59;14.30;91.80
13470;DHT22;6807;48.682;9.032;2023-08-30T08:15:29;14.40;1.00
13470;DHT22;6807;48.682;9.032;2023-08-30T08:47:19;16.60;99.90
13470;DHT22;6807;48.682;9.032;2023-08-30T08:49:47;17.10;99.90
13470;DHT22;6807;48.682;9.032;2023-08-30T08:52:15;17.30;16.60
13470;DHT22;6807;48.682;9.032;2023-08-30T08:54:43;17.60;99.90
13470;DHT22;6807;48.682;9.032;2023-08-30T08:57:10;17.60;7.60
13470;DHT22;6807;48.682;9.032;2023-08-30T08:59:37;17.30;30.40
13470;DHT22;6807;48.682;9.032;2023-08-30T09:02:04;17.30;27.10
13470;DHT22;6807;48.682;9.032;2023-08-30T09:04:33;17.20;36.30
13470;DHT22;6807;48.682;9.032;2023-08-30T09:07:00;17.20;1.00
13470;DHT22;6807;48.682;9.032;2023-08-30T09:09:27;17.00;1.00
13470;DHT22;6807;48.682;9.032;2023-08-30T09:11:54;17.10;99.90
13470;DHT22;6807;48.682;9.032;2023-08-30T09:14:21;17.50;99.90
13470;DHT22;6807;48.682;9.032;2023-08-30T09:16:55;17.50;99.90
13470;DHT22;6807;48.682;9.032;2023-08-30T09:19:22;18.00;78.40
13470;DHT22;6807;48.682;9.032;2023-08-30T09:21:54;18.10;1.00
13470;DHT22;6807;48.682;9.032;2023-08-30T09:24:22;18.30;1.00
13470;DHT22;6807;48.682;9.032;2023-08-30T09:26:51;19.10;99.90
13470;DHT22;6807;48.682;9.032;2023-08-30T09:29:20;20.20;99.90
13470;DHT22;6807;48.682;9.032;2023-08-30T09:31:51;21.00;74.30
13470;DHT22;6807;48.682;9.032;2023-08-30T09:34:22;21.70;17.00
13470;DHT22;6807;48.682;9.032;2023-08-30T09:36:49;22.10;1.00
13470;DHT22;6807;48.682;9.032;2023-08-30T09:39:17;22.20;20.00
13470;DHT22;6807;48.682;9.032;2023-08-30T09:41:45;22.60;15.60
13470;DHT22;6807;48.682;9.032;2023-08-30T09:47:25;22.20;1.00
13470;DHT22;6807;48.682;9.032;2023-08-30T09:49:55;22.60;1.00
13470;DHT22;6807;48.682;9.032;2023-08-30T09:52:24;22.90;1.00
13470;DHT22;6807;48.682;9.032;2023-08-30T09:54:55;23.30;1.00
13470;DHT22;6807;48.682;9.032;2023-08-30T09:57:23;23.80;1.00
13470;DHT22;6807;48.682;9.032;2023-08-30T09:59:51;24.10;1.00
13470;DHT22;6807;48.682;9.032;2023-08-30T10:02:42;24.20;1.00
13470;DHT22;6807;48.682;9.032;2023-08-30T10:05:10;24.70;1.00
13470;DHT22;6807;48.682;9.032;2023-08-30T10:07:38;24.90;1.00
13470;DHT22;6807;48.682;9.032;2023-08-30T10:10:08;25.10;1.00
13470;DHT22;6807;48.682;9.032;2023-08-30T10:12:37;25.50;1.00
13470;DHT22;6807;48.682;9.032;2023-08-30T10:15:33;25.10;1.00
13470;DHT22;6807;48.682;9.032;2023-08-30T10:18:01;25.40;1.00
13470;DHT22;6807;48.682;9.032;2023-08-30T10:20:29;25.20;1.00
13470;DHT22;6807;48.682;9.032;2023-08-30T10:22:59;25.40;1.00
13470;DHT22;6807;48.682;9.032;2023-08-30T10:25:31;25.70;3.20
13470;DHT22;6807;48.682;9.032;2023-08-30T10:27:59;25.30;1.00
13470;DHT22;6807;48.682;9.032;2023-08-30T10:30:26;26.00;1.00
13470;DHT22;6807;48.682;9.032;2023-08-30T10:32:55;25.60;1.00
13470;DHT22;6807;48.682;9.032;2023-08-30T10:35:22;24.50;1.00
13470;DHT22;6807;48.682;9.032;2023-08-30T10:37:55;23.50;1.00
13470;DHT22;6807;48.682;9.032;2023-08-30T10:40:22;24.20;1.00
13470;DHT22;6807;48.682;9.032;2023-08-30T10:43:00;24.80;1.00
13470;DHT22;6807;48.682;9.032;2023-08-30T10:45:27;25.20;1.00
13470;DHT22;6807;48.682;9.032;2023-08-30T10:47:57;25.40;1.00
13470;DHT22;6807;48.682;9.032;2023-08-30T10:50:31;25.50;1.00
13470;DHT22;6807;48.682;9.032;2023-08-30T10:52:58;25.70;1.00
13470;DHT22;6807;48.682;9.032;2023-08-30T10:55:25;25.40;1.00
13470;DHT22;6807;48.682;9.032;2023-08-30T10:58:01;25.10;1.00
13470;DHT22;6807;48.682;9.032;2023-08-30T11:00:30;25.60;1.00
13470;DHT22;6807;48.682;9.032;2023-08-30T11:02:57;25.50;1.00
13470;DHT22;6807;48.682;9.032;2023-08-30T11:05:25;25.10;1.00
13470;DHT22;6807;48.682;9.032;2023-08-30T11:07:53;25.60;1.00
13470;DHT22;6807;48.682;9.032;2023-08-30T11:10:21;26.10;1.00
13470;DHT22;6807;48.682;9.032;2023-08-30T11:12:49;27.10;1.00
13470;DHT22;6807;48.682;9.032;2023-08-30T11:15:17;26.10;1.00
13470;DHT22;6807;48.682;9.032;2023-08-30T11:17:46;25.50;1.00
13470;DHT22;6807;48.682;9.032;2023-08-30T11:20:14;25.60;1.00
13470;DHT22;6807;48.682;9.032;2023-08-30T11:22:43;24.80;1.00
13470;DHT22;6807;48.682;9.032;2023-08-30T11:25:10;24.20;1.00
13470;DHT22;6807;48.682;9.032;2023-08-30T11:27:38;23.70;1.00
13470;DHT22;6807;48.682;9.032;2023-08-30T11:30:06;23.50;1.00
13470;DHT22;6807;48.682;9.032;2023-08-30T11:32:36;23.30;1.00
13470;DHT22;6807;48.682;9.032;2023-08-30T11:35:03;22.60;1.00
13470;DHT22;6807;48.682;9.032;2023-08-30T11:37:31;21.90;1.00
13470;DHT22;6807;48.682;9.032;2023-08-30T11:42:26;19.70;1.00
13470;DHT22;6807;48.682;9.032;2023-08-30T11:44:53;18.90;1.00
13470;DHT22;6807;48.682;9.032;2023-08-30T11:47:20;18.40;1.00
13470;DHT22;6807;48.682;9.032;2023-08-30T11:49:58;17.70;1.00
13470;DHT22;6807;48.682;9.032;2023-08-30T11:52:28;17.30;99.90
13470;DHT22;6807;48.682;9.032;2023-08-30T11:54:55;16.80;1.00
13470;DHT22;6807;48.682;9.032;2023-08-30T11:57:22;16.40;99.90
13470;DHT22;6807;48.682;9.032;2023-08-30T11:59:51;16.20;1.00
13470;DHT22;6807;48.682;9.032;2023-08-30T12:04:47;15.90;99.90
13470;DHT22;6807;48.682;9.032;2023-08-30T12:07:25;15.80;99.90
13470;DHT22;6807;48.682;9.032;2023-08-30T12:09:52;15.70;99.90
13470;DHT22;6807;48.682;9.032;2023-08-30T12:12:30;15.70;99.90
13470;DHT22;6807;48.682;9.032;2023-08-30T12:14:57;15.60;1.00
13470;DHT22;6807;48.682;9.032;2023-08-30T12:17:24;15.90;99.90
13470;DHT22;6807;48.682;9.032;2023-08-30T12:19:55;16.20;10.30
13470;DHT22;6807;48.682;9.032;2023-08-30T12:22:34;16.10;1.00
13470;DHT22;6807;48.682;9.032;2023-08-30T12:25:01;16.10;99.90
13470;DHT22;6807;48.682;9.032;2023-08-30T12:27:29;16.40;96.60
13470;DHT22;6807;48.682;9.032;2023-08-30T12:29:56;16.60;1.00
13470;DHT22;6807;48.682;9.032;2023-08-30T12:32:23;16.90;99.90
13470;DHT22;6807;48.682;9.032;2023-08-30T12:34:50;17.00;1.00
13470;DHT22;6807;48.682;9.032;2023-08-30T12:37:17;17.20;1.00
13470;DHT22;6807;48.682;9.032;2023-08-30T12:39:45;17.20;99.90
13470;DHT22;6807;48.682;9.032;2023-08-30T12:42:12;17.20;99.90
13470;DHT22;6807;48.682;9.032;2023-08-30T12:44:39;17.30;95.10
13470;DHT22;6807;48.682;9.032;2023-08-30T12:47:05;17.30;99.90
13470;DHT22;6807;48.682;9.032;2023-08-30T12:49:32;17.30;99.90
13470;DHT22;6807;48.682;9.032;2023-08-30T12:51:59;17.20;99.90
13470;DHT22;6807;48.682;9.032;2023-08-30T12:54:26;17.50;1.00
13470;DHT22;6807;48.682;9.032;2023-08-30T12:56:55;17.40;58.30
13470;DHT22;6807;48.682;9.032;2023-08-30T12:59:22;17.60;99.90
13470;DHT22;6807;48.682;9.032;2023-08-30T13:01:48;17.80;8.20
13470;DHT22;6807;48.682;9.032;2023-08-30T13:04:15;17.80;99.90
13470;DHT22;6807;48.682;9.032;2023-08-30T13:06:42;17.80;99.90
13470;DHT22;6807;48.682;9.032;2023-08-30T13:09:09;18.00;99.90
13470;DHT22;6807;48.682;9.032;2023-08-30T13:11:36;18.10;1.00
13470;DHT22;6807;48.682;9.032;2023-08-30T13:14:04;18.50;1.00
13470;DHT22;6807;48.682;9.032;2023-08-30T13:16:31;18.80;1.00
13470;DHT22;6807;48.682;9.032;2023-08-30T13:18:58;20.20;99.90
13470;DHT22;6807;48.682;9.032;2023-08-30T13:21:25;20.90;99.90
13470;DHT22;6807;48.682;9.032;2023-08-30T13:23:52;21.90;99.90
13470;DHT22;6807;48.682;9.032;2023-08-30T13:26:19;23.30;66.00
13470;DHT22;6807;48.682;9.032;2023-08-30T13:28:46;24.60;4.40
13470;DHT22;6807;48.682;9.032;2023-08-30T13:31:14;25.60;1.00
13470;DHT22;6807;48.682;9.032;2023-08-30T13:33:41;26.40;1.00
13470;DHT22;6807;48.682;9.032;2023-08-30T13:36:08;25.90;1.00
13470;DHT22;6807;48.682;9.032;2023-08-30T13:38:34;24.40;1.00
13470;DHT22;6807;48.682;9.032;2023-08-30T13:41:01;23.30;1.00
13470;DHT22;6807;48.682;9.032;2023-08-30T13:43:29;22.70;1.00
13470;DHT22;6807;48.682;9.032;2023-08-30T13:45:59;22.20;5.20
13470;DHT22;6807;48.682;9.032;2023-08-30T13:48:28;21.50;1.00
13470;DHT22;6807;48.682;9.032;2023-08-30T13:50:55;21.00;1.00
13470;DHT22;6807;48.682;9.032;2023-08-30T13:53:21;20.60;1.40
13470;DHT22;6807;48.682;9.032;2023-08-30T13:55:50;21.50;16.50
13470;DHT22;6807;48.682;9.032;2023-08-30T13:58:17;21.90;3.10
13470;DHT22;6807;48.682;9.032;2023-08-30T14:00:44;21.70;59.80
13470;DHT22;6807;48.682;9.032;2023-08-30T14:03:11;21.70;1.00
13470;DHT22;6807;48.682;9.032;2023-08-30T14:05:39;21.70;26.60
13470;DHT22;6807;48.682;9.032;2023-08-30T14:08:06;22.10;1.00
13470;DHT22;6807;48.682;9.032;2023-08-30T14:10:33;21.90;1.00
13470;DHT22;6807;48.682;9.032;2023-08-30T14:13:00;21.30;1.00
13470;DHT22;6807;48.682;9.032;2023-08-30T14:15:28;20.60;1.00
13470;DHT22;6807;48.682;9.032;2023-08-30T14:17:55;20.10;1.00
13470;DHT22;6807;48.682;9.032;2023-08-30T14:20:21;20.20;1.00
13470;DHT22;6807;48.682;9.032;2023-08-30T14:22:50;20.30;41.50
13470;DHT22;6807;48.682;9.032;2023-08-30T14:25:17;20.50;18.60
13470;DHT22;6807;48.682;9.032;2023-08-30T14:27:43;20.40;1.00
13470;DHT22;6807;48.682;9.032;2023-08-30T14:30:11;20.30;1.00
13470;DHT22;6807;48.682;9.032;2023-08-30T14:32:38;20.00;1.00
13470;DHT22;6807;48.682;9.032;2023-08-30T14:35:05;19.70;55.30
13470;DHT22;6807;48.682;9.032;2023-08-30T14:37:32;19.70;99.90
13470;DHT22;6807;48.682;9.032;2023-08-30T14:40:03;19.50;99.90
13470;DHT22;6807;48.682;9.032;2023-08-30T14:42:30;19.20;99.90
13470;DHT22;6807;48.682;9.032;2023-08-30T14:44:57;19.10;99.90
13470;DHT22;6807;48.682;9.032;2023-08-30T14:47:24;19.10;99.90
13470;DHT22;6807;48.682;9.032;2023-08-30T14:49:52;19.10;99.90
13470;DHT22;6807;48.682;9.032;2023-08-30T14:52:19;19.10;99.90
13470;DHT22;6807;48.682;9.032;2023-08-30T14:54:46;19.10;99.90
13470;DHT22;6807;48.682;9.032;2023-08-30T14:57:14;19.00;99.90
13470;DHT22;6807;48.682;9.032;2023-08-30T14:59:41;19.10;99.90
13470;DHT22;6807;48.682;9.032;2023-08-30T15:02:09;19.20;99.90
13470;DHT22;6807;48.682;9.032;2023-08-30T15:04:36;19.40;99.90
13470;DHT22;6807;48.682;9.032;2023-08-30T15:07:03;19.70;99.90
13470;DHT22;6807;48.682;9.032;2023-08-30T15:09:32;20.20;4.40
13470;DHT22;6807;48.682;9.032;2023-08-30T15:11:59;20.30;60.10
13470;DHT22;6807;48.682;9.032;2023-08-30T15:14:28;20.30;99.90
13470;DHT22;6807;48.682;9.032;2023-08-30T15:16:57;20.10;1.00
13470;DHT22;6807;48.682;9.032;2023-08-30T15:19:24;19.90;99.90
13470;DHT22;6807;48.682;9.032;2023-08-30T15:21:51;19.80;85.50
13470;DHT22;6807;48.682;9.032;2023-08-30T15:24:18;19.70;15.40
13470;DHT22;6807;48.682;9.032;2023-08-30T15:26:44;19.70;18.50
13470;DHT22;6807;48.682;9.032;2023-08-30T15:29:12;19.70;25.80
13470;DHT22;6807;48.682;9.032;2023-08-30T15:31:40;19.70;1.00
13470;DHT22;6807;48.682;9.032;2023-08-30T15:34:07;19.90;67.00
13470;DHT22;6807;48.682;9.032;2023-08-30T15:36:34;20.10;15.20
13470;DHT22;6807;48.682;9.032;2023-08-30T15:39:01;20.40;43.20
13470;DHT22;6807;48.682;9.032;2023-08-30T15:41:28;21.20;12.90
13470;DHT22;6807;48.682;9.032;2023-08-30T15:43:54;22.20;11.70
13470;DHT22;6807;48.682;9.032;2023-08-30T15:46:21;22.80;51.40
13470;DHT22;6807;48.682;9.032;2023-08-30T15:48:50;22.70;1.00
13470;DHT22;6807;48.682;9.032;2023-08-30T15:51:20;21.90;1.00
13470;DHT22;6807;48.682;9.032;2023-08-30T15:53:47;21.60;26.60
13470;DHT22;6807;48.682;9.032;2023-08-30T15:56:14;21.60;1.00
13470;DHT22;6807;48.682;9.032;2023-08-30T15:58:41;21.40;1.00
13470;DHT22;6807;48.682;9.032;2023-08-30T16:01:08;21.30;1.00
13470;DHT22;6807;48.682;9.032;2023-08-30T16:03:35;21.40;1.00
13470;DHT22;6807;48.682;9.032;2023-08-30T16:06:04;21.50;1.00
13470;DHT22;6807;48.682;9.032;2023-08-30T16:08:31;21.40;1.00
13470;DHT22;6807;48.682;9.032;2023-08-30T16:10:58;21.40;1.00
13470;DHT22;6807;48.682;9.032;2023-08-30T16:13:25;21.30;1.00
13470;DHT22;6807;48.682;9.032;2023-08-30T16:15:53;21.20;1.00
13470;DHT22;6807;48.682;9.032;2023-08-30T16:18:19;21.00;1.00
13470;DHT22;6807;48.682;9.032;2023-08-30T16:20:49;20.50;1.00
13470;DHT22;6807;48.682;9.032;2023-08-30T16:23:17;20.10;1.00
13470;DHT22;6807;48.682;9.032;2023-08-30T16:25:45;19.70;20.20
13470;DHT22;6807;48.682;9.032;2023-08-30T16:28:11;19.40;10.70
13470;DHT22;6807;48.682;9.032;2023-08-30T16:30:38;19.20;26.40
13470;DHT22;6807;48.682;9.032;2023-08-30T16:33:05;19.20;99.90
13470;DHT22;6807;48.682;9.032;2023-08-30T16:35:32;19.10;33.80
13470;DHT22;6807;48.682;9.032;2023-08-30T16:37:59;19.10;48.90
13470;DHT22;6807;48.682;9.032;2023-08-30T16:40:27;19.20;37.90
13470;DHT22;6807;48.682;9.032;2023-08-30T16:42:54;19.10;86.00
13470;DHT22;6807;48.682;9.032;2023-08-30T16:45:21;18.90;99.90
13470;DHT22;6807;48.682;9.032;2023-08-30T16:47:48;18.70;99.90
13470;DHT22;6807;48.682;9.032;2023-08-30T16:50:15;18.60;99.90
13470;DHT22;6807;48.682;9.032;2023-08-30T16:52:42;18.40;99.90
13470;DHT22;6807;48.682;9.032;2023-08-30T16:55:09;18.30;99.90
13470;DHT22;6807;48.682;9.032;2023-08-30T16:57:37;18.10;99.90
13470;DHT22;6807;48.682;9.032;2023-08-30T17:00:05;18.10;99.90
13470;DHT22;6807;48.682;9.032;2023-08-30T17:02:34;18.00;99.90
13470;DHT22;6807;48.682;9.032;2023-08-30T17:05:02;17.90;1.00
13470;DHT22;6807;48.682;9.032;2023-08-30T17:07:29;17.80;1.00